createdAt,value
2022-08-18T00:00:50.924Z,5.57
2022-08-18T00:02:05.389Z,5.70
2022-08-18T00:03:27.130Z,6.10
2022-08-18T00:04:35.902Z,6.53
2022-08-18T00:05:39.045Z,6.15
2022-08-18T00:06:42.423Z,6.13
2022-08-18T00:07:49.926Z,6.10
2022-08-18T00:08:53.010Z,6.30
2022-08-18T00:09:55.846Z,6.80
2022-08-18T00:10:58.678Z,6.35
2022-08-18T00:12:04.158Z,5.85
2022-08-18T00:13:06.348Z,5.85
2022-08-18T00:14:14.520Z,6.03
2022-08-18T00:15:25.623Z,5.97
2022-08-18T00:16:28.784Z,6.13
2022-08-18T00:17:32.413Z,5.97
2022-08-18T00:18:35.701Z,5.70
2022-08-18T00:19:46.167Z,6.00
2022-08-18T00:20:50.176Z,5.70
2022-08-18T00:21:52.482Z,5.90
2022-08-18T00:22:56.685Z,5.47
2022-08-18T00:23:58.919Z,6.05
2022-08-18T00:25:04.396Z,5.80
2022-08-18T00:26:06.660Z,5.78
2022-08-18T00:27:10.660Z,5.78
2022-08-18T00:28:14.162Z,6.20
2022-08-18T00:29:16.361Z,5.68
2022-08-18T00:30:23.616Z,5.63
2022-08-18T00:31:26.106Z,5.82
2022-08-18T00:32:36.094Z,5.85
2022-08-18T00:33:38.444Z,6.25
2022-08-18T00:34:40.896Z,5.75
2022-08-18T00:35:43.106Z,5.97
2022-08-18T00:36:45.356Z,6.25
2022-08-18T00:37:49.218Z,6.53
2022-08-18T00:38:52.058Z,6.20
2022-08-18T00:39:54.492Z,6.60
2022-08-18T00:40:56.931Z,6.05
2022-08-18T00:42:00.479Z,6.90
2022-08-18T00:43:04.965Z,6.50
2022-08-18T00:44:07.305Z,6.60
2022-08-18T00:45:14.486Z,6.50
2022-08-18T00:46:26.545Z,6.35
2022-08-18T00:47:32.988Z,6.57
2022-08-18T00:48:49.048Z,6.90
2022-08-18T00:49:53.498Z,6.63
2022-08-18T00:51:02.741Z,6.45
2022-08-18T00:52:05.660Z,6.43
2022-08-18T00:53:29.013Z,6.78
2022-08-18T00:54:33.030Z,6.32
2022-08-18T00:55:35.901Z,6.03
2022-08-18T00:56:44.360Z,6.75
2022-08-18T00:57:48.444Z,6.47
2022-08-18T00:58:58.275Z,6.45
2022-08-18T01:00:13.214Z,5.97
2022-08-18T01:01:19.551Z,6.43
2022-08-18T01:02:34.130Z,6.22
2022-08-18T01:03:40.142Z,6.30
2022-08-18T01:04:50.126Z,6.15
2022-08-18T01:06:11.902Z,6.40
2022-08-18T01:07:22.475Z,6.18
2022-08-18T01:08:29.059Z,6.40
2022-08-18T01:09:31.794Z,6.40
2022-08-18T01:10:34.398Z,6.20
2022-08-18T01:11:38.708Z,6.05
2022-08-18T01:12:45.901Z,6.10
2022-08-18T01:13:49.044Z,6.18
2022-08-18T01:14:51.303Z,6.05
2022-08-18T01:15:53.474Z,6.35
2022-08-18T01:17:15.155Z,5.80
2022-08-18T01:18:36.150Z,5.70
2022-08-18T01:19:57.493Z,6.00
2022-08-18T01:21:47.747Z,5.82
2022-08-18T01:23:12.069Z,6.03
2022-08-18T01:24:17.481Z,6.20
2022-08-18T01:25:42.502Z,6.00
2022-08-18T01:26:50.172Z,6.28
2022-08-18T01:27:52.699Z,5.90
2022-08-18T01:28:54.979Z,6.25
2022-08-18T01:29:57.659Z,6.00
2022-08-18T01:31:01.111Z,6.32
2022-08-18T01:32:03.733Z,5.82
2022-08-18T01:33:10.677Z,6.03
2022-08-18T01:34:13.141Z,5.90
2022-08-18T01:35:18.195Z,6.10
2022-08-18T01:36:22.087Z,6.10
2022-08-18T01:37:24.740Z,6.28
2022-08-18T01:38:27.496Z,5.72
2022-08-18T01:41:12.876Z,5.50
2022-08-18T01:41:27.426Z,6.00
2022-08-18T01:42:18.271Z,6.07
2022-08-18T01:43:21.320Z,5.88
2022-08-18T01:44:23.542Z,5.88
2022-08-18T01:45:26.340Z,5.82
2022-08-18T01:46:30.680Z,6.65
2022-08-18T01:47:47.699Z,5.63
2022-08-18T01:48:51.413Z,5.75
2022-08-18T01:49:53.643Z,6.32
2022-08-18T01:50:57.035Z,6.03
2022-08-18T01:51:59.218Z,6.03
2022-08-18T01:53:04.541Z,6.22
2022-08-18T01:54:06.786Z,5.95
2022-08-18T01:55:09.789Z,5.80
2022-08-18T01:56:13.232Z,5.95
2022-08-18T01:57:16.746Z,6.38
2022-08-18T01:58:18.953Z,6.00
2022-08-18T01:59:21.174Z,5.70
2022-08-18T02:00:25.104Z,5.95
2022-08-18T02:01:36.206Z,6.07
2022-08-18T02:02:40.024Z,6.10
2022-08-18T02:03:49.500Z,6.10
2022-08-18T02:04:55.215Z,5.82
2022-08-18T02:06:04.320Z,6.03
2022-08-18T02:07:11.525Z,6.80
2022-08-18T02:08:15.493Z,6.20
2022-08-18T02:09:24.141Z,6.68
2022-08-18T02:10:27.704Z,5.95
2022-08-18T02:11:29.876Z,6.60
2022-08-18T02:12:35.346Z,6.15
2022-08-18T02:13:37.600Z,6.18
2022-08-18T02:14:48.052Z,6.32
2022-08-18T02:15:50.352Z,5.82
2022-08-18T02:16:52.549Z,6.30
2022-08-18T02:17:54.714Z,6.05
2022-08-18T02:18:56.926Z,6.43
2022-08-18T02:20:01.510Z,6.07
2022-08-18T02:21:13.946Z,6.82
2022-08-18T02:22:21.948Z,6.32
2022-08-18T02:23:25.036Z,6.43
2022-08-18T02:24:27.258Z,6.10
2022-08-18T02:25:29.464Z,6.07
2022-08-18T02:26:34.738Z,6.30
2022-08-18T02:27:37.271Z,6.43
2022-08-18T02:28:40.079Z,6.45
2022-08-18T02:29:42.993Z,6.43
2022-08-18T02:30:45.239Z,6.22
2022-08-18T02:31:47.575Z,6.60
2022-08-18T02:32:49.929Z,6.00
2022-08-18T02:33:52.881Z,6.35
2022-08-18T02:34:55.269Z,6.05
2022-08-18T02:35:57.508Z,6.43
2022-08-18T02:37:01.133Z,6.38
2022-08-18T02:38:05.494Z,6.22
2022-08-18T02:39:09.204Z,6.47
2022-08-18T02:40:15.221Z,6.00
2022-08-18T02:41:18.155Z,6.50
2022-08-18T02:42:20.708Z,6.28
2022-08-18T02:43:23.463Z,6.07
2022-08-18T02:44:25.691Z,5.97
2022-08-18T02:45:27.906Z,6.22
2022-08-18T02:46:31.344Z,6.00
2022-08-18T02:47:34.184Z,6.47
2022-08-18T02:48:36.361Z,6.03
2022-08-18T02:49:41.585Z,6.50
2022-08-18T02:50:47.270Z,6.50
2022-08-18T02:51:51.377Z,6.30
2022-08-18T02:52:54.707Z,6.32
2022-08-18T02:54:00.382Z,6.20
2022-08-18T02:55:03.425Z,6.38
2022-08-18T02:56:40.142Z,6.70
2022-08-18T02:57:47.575Z,6.47
2022-08-18T02:58:53.655Z,6.82
2022-08-18T02:59:56.349Z,6.28
2022-08-18T03:01:05.030Z,6.35
2022-08-18T03:02:09.290Z,7.00
2022-08-18T03:03:12.486Z,6.35
2022-08-18T03:04:17.710Z,6.60
2022-08-18T03:05:23.293Z,6.53
2022-08-18T03:06:27.027Z,6.88
2022-08-18T03:07:32.217Z,6.47
2022-08-18T03:08:37.401Z,6.47
2022-08-18T03:09:39.671Z,6.32
2022-08-18T03:10:41.918Z,6.63
2022-08-18T03:11:44.861Z,6.38
2022-08-18T03:12:51.418Z,6.55
2022-08-18T03:13:55.236Z,6.80
2022-08-18T03:14:57.489Z,6.85
2022-08-18T03:16:00.050Z,6.32
2022-08-18T03:17:05.813Z,7.40
2022-08-18T03:18:08.004Z,6.85
2022-08-18T03:19:10.208Z,7.10
2022-08-18T03:20:12.808Z,6.50
2022-08-18T03:21:18.452Z,6.60
2022-08-18T03:22:28.122Z,6.82
2022-08-18T03:23:34.058Z,6.65
2022-08-18T03:24:36.545Z,7.15
2022-08-18T03:25:47.391Z,6.63
2022-08-18T03:26:51.850Z,6.53
2022-08-18T03:27:54.132Z,6.35
2022-08-18T03:28:57.777Z,6.53
2022-08-18T03:30:00.515Z,6.63
2022-08-18T03:31:02.819Z,6.68
2022-08-18T03:32:07.290Z,6.70
2022-08-18T03:33:17.498Z,6.35
2022-08-18T03:34:21.133Z,6.95
2022-08-18T03:35:23.306Z,6.47
2022-08-18T03:36:28.827Z,6.88
2022-08-18T03:37:31.058Z,6.93
2022-08-18T03:38:36.226Z,6.65
2022-08-18T03:39:38.531Z,6.68
2022-08-18T03:40:41.024Z,6.85
2022-08-18T03:41:58.653Z,6.57
2022-08-18T03:43:49.566Z,6.80
2022-08-18T03:44:34.376Z,6.78
2022-08-18T03:45:36.599Z,7.15
2022-08-18T03:46:41.190Z,6.72
2022-08-18T03:47:46.095Z,6.78
2022-08-18T03:48:49.472Z,6.80
2022-08-18T03:49:51.672Z,6.82
2022-08-18T03:50:53.858Z,6.95
2022-08-18T03:51:56.495Z,6.55
2022-08-18T03:52:59.766Z,7.10
2022-08-18T03:54:04.118Z,6.13
2022-08-18T03:55:06.603Z,6.40
2022-08-18T03:56:16.055Z,6.20
2022-08-18T03:57:19.995Z,6.80
2022-08-18T03:58:22.171Z,6.70
2022-08-18T03:59:26.285Z,6.40
2022-08-18T04:00:33.884Z,6.72
2022-08-18T04:01:41.965Z,6.53
2022-08-18T04:02:44.235Z,6.00
2022-08-18T04:03:49.945Z,6.70
2022-08-18T04:04:52.844Z,6.07
2022-08-18T04:05:55.061Z,6.43
2022-08-18T04:07:00.231Z,6.78
2022-08-18T04:08:05.089Z,6.55
2022-08-18T04:09:13.543Z,6.80
2022-08-18T04:10:19.407Z,6.40
2022-08-18T04:11:23.018Z,6.97
2022-08-18T04:12:25.186Z,6.45
2022-08-18T04:13:27.371Z,6.07
2022-08-18T04:14:33.388Z,6.63
2022-08-18T04:15:37.532Z,6.65
2022-08-18T04:16:40.900Z,6.95
2022-08-18T04:18:03.080Z,6.60
2022-08-18T04:19:05.831Z,6.45
2022-08-18T04:20:08.496Z,7.10
2022-08-18T04:21:13.752Z,6.75
2022-08-18T04:22:19.309Z,6.53
2022-08-18T04:23:21.552Z,7.38
2022-08-18T04:24:30.917Z,6.72
2022-08-18T04:25:34.112Z,6.85
2022-08-18T04:26:40.160Z,6.90
2022-08-18T04:27:43.884Z,7.20
2022-08-18T04:28:46.295Z,7.20
2022-08-18T04:29:48.598Z,7.20
2022-08-18T04:30:50.978Z,7.25
2022-08-18T04:31:53.290Z,7.00
2022-08-18T04:32:55.448Z,6.95
2022-08-18T04:33:59.604Z,6.88
2022-08-18T04:35:02.787Z,6.93
2022-08-18T04:36:12.477Z,6.80
2022-08-18T04:37:22.099Z,6.72
2022-08-18T04:38:24.497Z,7.20
2022-08-18T04:39:26.844Z,7.07
2022-08-18T04:40:29.693Z,6.78
2022-08-18T04:41:32.090Z,6.57
2022-08-18T04:42:34.281Z,7.35
2022-08-18T04:43:42.406Z,6.93
2022-08-18T04:44:44.598Z,6.72
2022-08-18T04:45:47.616Z,6.90
2022-08-18T04:46:53.650Z,6.93
2022-08-18T04:47:58.676Z,6.97
2022-08-18T04:49:00.931Z,6.65
2022-08-18T04:50:03.996Z,6.13
2022-08-18T04:51:10.584Z,7.05
2022-08-18T04:52:40.253Z,6.95
2022-08-18T04:53:47.791Z,6.90
2022-08-18T04:54:50.233Z,6.80
2022-08-18T04:55:55.618Z,7.22
2022-08-18T04:56:57.946Z,7.05
2022-08-18T04:58:00.927Z,7.13
2022-08-18T04:59:08.289Z,7.00
2022-08-18T05:00:13.944Z,6.68
2022-08-18T05:01:17.828Z,6.85
2022-08-18T05:02:21.410Z,6.65
2022-08-18T05:03:26.812Z,6.80
2022-08-18T05:04:30.387Z,6.80
2022-08-18T05:05:32.554Z,6.72
2022-08-18T05:06:36.162Z,6.80
2022-08-18T05:07:45.002Z,6.60
2022-08-18T05:08:48.618Z,6.60
2022-08-18T05:09:54.216Z,6.57
2022-08-18T05:11:03.519Z,7.00
2022-08-18T05:12:07.103Z,6.65
2022-08-18T05:13:09.969Z,6.55
2022-08-18T05:14:12.274Z,6.60
2022-08-18T05:15:14.471Z,6.57
2022-08-18T05:16:27.821Z,6.60
2022-08-18T05:17:31.173Z,6.55
2022-08-18T05:18:39.379Z,6.18
2022-08-18T05:19:47.111Z,6.45
2022-08-18T05:20:53.264Z,6.72
2022-08-18T05:21:59.943Z,6.43
2022-08-18T05:23:03.780Z,6.30
2022-08-18T05:24:06.197Z,7.20
2022-08-18T05:25:10.606Z,6.45
2022-08-18T05:26:16.980Z,6.43
2022-08-18T05:27:19.198Z,6.50
2022-08-18T05:28:21.436Z,5.95
2022-08-18T05:29:23.706Z,6.53
2022-08-18T05:30:26.115Z,6.55
2022-08-18T05:31:29.393Z,6.70
2022-08-18T05:32:47.421Z,6.47
2022-08-18T05:33:52.573Z,6.57
2022-08-18T05:34:54.816Z,6.45
2022-08-18T05:36:06.744Z,6.65
2022-08-18T05:37:28.071Z,6.53
2022-08-18T05:38:59.004Z,6.55
2022-08-18T05:40:07.576Z,6.68
2022-08-18T05:41:21.562Z,7.22
2022-08-18T05:42:26.440Z,6.53
2022-08-18T05:43:28.629Z,6.57
2022-08-18T05:44:34.590Z,7.00
2022-08-18T05:45:39.118Z,6.57
2022-08-18T05:46:50.595Z,7.65
2022-08-18T05:48:02.120Z,6.90
2022-08-18T05:49:04.988Z,6.82
2022-08-18T05:50:10.997Z,7.10
2022-08-18T05:51:21.091Z,6.63
2022-08-18T05:52:23.194Z,6.90
2022-08-18T05:53:45.459Z,6.38
2022-08-18T05:55:16.412Z,6.57
2022-08-18T05:56:46.569Z,6.85
2022-08-18T05:57:55.049Z,7.20
2022-08-18T05:58:59.705Z,8.05
2022-08-18T06:00:04.961Z,8.43
2022-08-18T06:01:27.439Z,7.78
2022-08-18T06:02:39.631Z,7.30
2022-08-18T06:03:48.933Z,7.35
2022-08-18T06:04:56.242Z,7.10
2022-08-18T06:06:09.142Z,6.93
2022-08-18T06:07:27.028Z,6.75
2022-08-18T06:08:50.556Z,7.20
2022-08-18T06:09:57.694Z,6.57
2022-08-18T06:10:59.873Z,7.18
2022-08-18T06:12:22.713Z,7.10
2022-08-18T06:13:24.958Z,6.90
2022-08-18T06:14:30.151Z,7.03
2022-08-18T06:15:44.421Z,6.85
2022-08-18T06:16:59.697Z,6.90
2022-08-18T06:18:18.437Z,6.97
2022-08-18T06:19:46.164Z,6.55
2022-08-18T06:21:14.332Z,6.68
2022-08-18T06:23:03.173Z,6.63
2022-08-18T06:24:25.069Z,6.55
2022-08-18T06:25:40.072Z,6.90
2022-08-18T06:27:03.008Z,6.55
2022-08-18T06:28:13.368Z,5.72
2022-08-18T06:29:50.428Z,6.22
2022-08-18T06:31:11.506Z,6.18
2022-08-18T06:32:45.313Z,6.50
2022-08-18T06:34:13.011Z,6.18
2022-08-18T06:35:39.936Z,5.93
2022-08-18T06:36:52.749Z,6.47
2022-08-18T06:38:36.851Z,6.20
2022-08-18T06:39:48.753Z,6.05
2022-08-18T06:41:03.306Z,6.28
2022-08-18T06:42:08.381Z,6.38
2022-08-18T06:43:17.377Z,6.47
2022-08-18T06:44:44.556Z,6.32
2022-08-18T06:45:52.270Z,6.18
2022-08-18T06:47:04.409Z,6.20
2022-08-18T06:48:30.842Z,6.05
2022-08-18T06:50:04.975Z,6.40
2022-08-18T06:51:08.661Z,6.50
2022-08-18T06:52:34.278Z,6.38
2022-08-18T06:53:58.546Z,6.13
2022-08-18T06:55:09.411Z,6.30
2022-08-18T06:56:34.170Z,6.13
2022-08-18T06:57:53.591Z,6.40
2022-08-18T06:59:32.429Z,6.20
2022-08-18T07:00:46.533Z,6.47
2022-08-18T07:02:02.147Z,6.88
2022-08-18T07:03:09.635Z,6.70
2022-08-18T07:04:33.932Z,7.50
2022-08-18T07:05:37.404Z,7.45
2022-08-18T07:06:41.345Z,7.40
2022-08-18T07:07:47.868Z,7.22
2022-08-18T07:08:52.978Z,7.90
2022-08-18T07:09:55.253Z,7.68
2022-08-18T07:11:12.618Z,7.78
2022-08-18T07:12:29.049Z,7.30
2022-08-18T07:13:41.763Z,7.13
2022-08-18T07:15:05.976Z,6.78
2022-08-18T07:16:40.547Z,6.50
2022-08-18T07:17:48.959Z,6.35
2022-08-18T07:18:52.622Z,6.43
2022-08-18T07:19:58.256Z,6.28
2022-08-18T07:21:03.661Z,6.18
2022-08-18T07:22:17.468Z,6.60
2022-08-18T07:23:40.052Z,6.78
2022-08-18T07:24:45.786Z,6.07
2022-08-18T07:25:53.035Z,6.00
2022-08-18T07:27:04.101Z,6.80
2022-08-18T07:28:07.396Z,6.18
2022-08-18T07:29:15.265Z,6.32
2022-08-18T07:30:20.297Z,6.38
2022-08-18T07:31:49.229Z,6.72
2022-08-18T07:33:21.363Z,6.60
2022-08-18T07:34:26.689Z,6.50
2022-08-18T07:35:39.294Z,6.75
2022-08-18T07:36:55.732Z,6.68
2022-08-18T07:39:50.576Z,6.65
2022-08-18T07:41:06.322Z,6.88
2022-08-18T07:42:54.082Z,6.22
2022-08-18T07:43:52.709Z,6.63
2022-08-18T07:45:03.305Z,6.82
2022-08-18T07:46:13.541Z,7.07
2022-08-18T07:47:35.639Z,7.10
2022-08-18T07:48:40.744Z,6.60
2022-08-18T07:50:13.461Z,6.93
2022-08-18T07:51:17.363Z,6.55
2022-08-18T07:52:36.657Z,6.85
2022-08-18T07:54:02.126Z,6.80
2022-08-18T07:55:31.512Z,6.65
2022-08-18T07:57:04.819Z,6.68
2022-08-18T07:58:47.831Z,6.75
2022-08-18T08:00:00.192Z,6.30
2022-08-18T08:01:10.924Z,6.40
2022-08-18T08:02:13.107Z,6.43
2022-08-18T08:04:03.736Z,6.63
2022-08-18T08:05:35.210Z,6.70
2022-08-18T08:07:23.797Z,6.60
2022-08-18T08:08:31.243Z,6.80
2022-08-18T08:09:52.095Z,7.25
2022-08-18T08:11:27.647Z,6.22
2022-08-18T08:12:48.303Z,6.32
2022-08-18T08:14:11.984Z,6.15
2022-08-18T08:15:28.203Z,6.60
2022-08-18T08:17:10.032Z,6.40
2022-08-18T08:18:40.657Z,6.60
2022-08-18T08:20:03.698Z,6.68
2022-08-18T08:21:18.542Z,6.85
2022-08-18T08:22:48.576Z,7.53
2022-08-18T08:24:10.355Z,6.97
2022-08-18T08:25:52.110Z,6.68
2022-08-18T08:27:00.371Z,7.03
2022-08-18T08:28:33.267Z,6.43
2022-08-18T08:29:53.732Z,6.80
2022-08-18T08:31:33.079Z,6.57
2022-08-18T08:32:35.190Z,6.85
2022-08-18T08:33:44.387Z,6.75
2022-08-18T08:34:57.221Z,6.53
2022-08-18T08:36:11.230Z,6.75
2022-08-18T08:37:19.569Z,6.45
2022-08-18T08:38:45.019Z,6.80
2022-08-18T08:39:58.033Z,6.50
2022-08-18T08:41:05.321Z,6.65
2022-08-18T08:42:31.713Z,6.65
2022-08-18T08:43:44.127Z,6.47
2022-08-18T08:45:02.583Z,6.45
2022-08-18T08:46:08.397Z,6.70
2022-08-18T08:47:35.992Z,6.85
2022-08-18T08:48:49.636Z,5.80
2022-08-18T08:50:00.917Z,6.50
2022-08-18T08:51:33.873Z,5.82
2022-08-18T08:52:49.383Z,6.18
2022-08-18T08:53:58.357Z,6.35
2022-08-18T08:55:07.501Z,5.97
2022-08-18T08:56:14.733Z,6.13
2022-08-18T08:57:18.961Z,6.03
2022-08-18T08:58:40.476Z,6.13
2022-08-18T08:59:47.512Z,5.65
2022-08-18T09:00:51.830Z,5.95
2022-08-18T09:02:06.263Z,5.95
2022-08-18T09:03:30.115Z,5.78
2022-08-18T09:04:53.281Z,6.03
2022-08-18T09:06:29.166Z,6.10
2022-08-18T09:07:56.053Z,6.57
2022-08-18T09:09:25.206Z,6.40
2022-08-18T09:11:04.214Z,6.22
2022-08-18T09:12:48.595Z,6.35
2022-08-18T09:13:59.681Z,6.35
2022-08-18T09:15:13.883Z,6.50
2022-08-18T09:16:52.076Z,6.65
2022-08-18T09:18:15.792Z,5.88
2022-08-18T09:20:55.135Z,6.47
2022-08-18T09:22:10.233Z,6.15
2022-08-18T09:23:24.427Z,6.28
2022-08-18T09:24:30.407Z,6.93
2022-08-18T09:25:47.336Z,6.47
2022-08-18T09:26:54.033Z,6.32
2022-08-18T09:28:13.332Z,6.03
2022-08-18T09:29:27.361Z,6.53
2022-08-18T09:30:59.246Z,6.05
2022-08-18T09:32:20.162Z,7.05
2022-08-18T09:33:32.104Z,6.60
2022-08-18T09:34:53.195Z,6.20
2022-08-18T09:36:13.200Z,6.05
2022-08-18T09:37:29.902Z,6.57
2022-08-18T09:38:55.777Z,6.18
2022-08-18T09:41:01.067Z,6.32
2022-08-18T09:42:00.275Z,5.88
2022-08-18T09:43:13.974Z,6.40
2022-08-18T09:44:43.278Z,6.28
2022-08-18T09:45:47.691Z,6.07
2022-08-18T09:47:01.685Z,6.38
2022-08-18T09:48:28.295Z,6.15
2022-08-18T09:49:38.973Z,6.03
2022-08-18T09:50:57.212Z,6.43
2022-08-18T09:52:24.388Z,5.80
2022-08-18T09:54:13.828Z,5.90
2022-08-18T09:55:16.023Z,6.20
2022-08-18T09:56:54.321Z,5.72
2022-08-18T09:58:19.285Z,6.10
2022-08-18T09:59:34.518Z,6.22
2022-08-18T10:00:37.144Z,6.20
2022-08-18T10:01:41.965Z,6.38
2022-08-18T10:02:49.785Z,5.97
2022-08-18T10:04:21.479Z,6.05
2022-08-18T10:05:28.822Z,6.38
2022-08-18T10:06:31.919Z,6.57
2022-08-18T10:11:00.877Z,6.35
2022-08-18T10:12:36.262Z,6.18
2022-08-18T10:13:59.262Z,6.00
2022-08-18T10:15:33.208Z,6.20
2022-08-18T10:17:21.250Z,6.32
2022-08-18T10:18:54.264Z,6.35
2022-08-18T10:20:26.110Z,6.13
2022-08-18T10:21:50.644Z,5.95
2022-08-18T10:24:38.163Z,6.65
2022-08-18T10:25:45.771Z,6.22
2022-08-18T10:28:50.215Z,6.20
2022-08-18T10:29:56.196Z,6.35
2022-08-18T10:31:10.048Z,6.57
2022-08-18T10:32:14.312Z,6.50
2022-08-18T10:33:57.226Z,6.45
2022-08-18T10:34:59.474Z,6.00
2022-08-18T10:36:03.145Z,5.80
2022-08-18T10:37:28.341Z,6.70
2022-08-18T10:38:48.953Z,6.45
2022-08-18T10:39:56.362Z,6.45
2022-08-18T10:42:34.750Z,6.65
2022-08-18T10:43:57.323Z,6.30
2022-08-18T10:45:11.949Z,5.97
2022-08-18T10:46:34.347Z,5.90
2022-08-18T10:47:37.960Z,6.57
2022-08-18T10:48:40.318Z,6.55
2022-08-18T10:49:49.874Z,5.97
2022-08-18T10:51:21.366Z,6.05
2022-08-18T10:52:54.434Z,6.22
2022-08-18T10:54:23.283Z,6.72
2022-08-18T10:55:53.710Z,6.68
2022-08-18T10:57:20.623Z,6.18
2022-08-18T10:58:47.401Z,6.20
2022-08-18T10:59:56.686Z,6.05
2022-08-18T11:01:12.321Z,6.30
2022-08-18T11:02:40.020Z,6.47
2022-08-18T11:03:58.374Z,6.25
2022-08-18T11:05:06.538Z,6.47
2022-08-18T11:07:44.783Z,6.53
2022-08-18T11:08:53.203Z,7.15
2022-08-18T11:13:01.606Z,6.78
2022-08-18T11:16:41.543Z,6.78
2022-08-18T11:17:55.164Z,7.15
2022-08-18T11:19:06.539Z,6.97
2022-08-18T11:20:12.913Z,7.47
2022-08-18T11:21:42.088Z,6.80
2022-08-18T11:22:57.069Z,6.82
2022-08-18T11:24:06.281Z,6.95
2022-08-18T11:25:39.828Z,7.25
2022-08-18T11:28:20.166Z,7.40
2022-08-18T11:29:38.173Z,7.30
2022-08-18T11:30:43.898Z,7.18
2022-08-18T11:31:52.724Z,6.85
2022-08-18T11:32:57.756Z,7.30
2022-08-18T11:34:00.433Z,7.28
2022-08-18T11:35:19.683Z,6.90
2022-08-18T11:36:30.944Z,6.93
2022-08-18T11:37:51.543Z,7.18
2022-08-18T11:38:56.135Z,6.93
2022-08-18T11:40:01.036Z,7.20
2022-08-18T11:41:24.469Z,7.07
2022-08-18T11:42:41.494Z,6.80
2022-08-18T11:43:50.621Z,7.28
2022-08-18T11:45:02.769Z,7.07
2022-08-18T11:46:42.953Z,6.82
2022-08-18T11:48:14.783Z,6.68
2022-08-18T11:49:33.451Z,6.85
2022-08-18T11:51:01.442Z,6.65
2022-08-18T11:52:29.604Z,7.30
2022-08-18T11:53:57.982Z,6.78
2022-08-18T11:55:14.617Z,6.50
2022-08-18T11:56:30.786Z,6.78
2022-08-18T11:57:58.758Z,6.95
2022-08-18T11:59:12.660Z,6.72
2022-08-18T12:00:42.540Z,6.85
2022-08-18T12:01:59.893Z,7.00
2022-08-18T12:03:05.847Z,6.68
2022-08-18T12:04:11.182Z,6.60
2022-08-18T12:05:13.750Z,6.40
2022-08-18T12:06:27.070Z,6.47
2022-08-18T12:07:35.411Z,6.95
2022-08-18T12:08:57.204Z,6.80
2022-08-18T12:10:28.826Z,6.70
2022-08-18T12:11:36.061Z,6.45
2022-08-18T12:12:51.760Z,6.47
2022-08-18T12:14:29.678Z,6.72
2022-08-18T12:15:43.652Z,6.38
2022-08-18T12:16:53.946Z,7.10
2022-08-18T12:17:56.498Z,7.00
2022-08-18T12:19:00.820Z,6.63
2022-08-18T12:20:09.301Z,6.93
2022-08-18T12:21:14.268Z,7.15
2022-08-18T12:22:31.388Z,7.05
2022-08-18T12:25:16.232Z,7.03
2022-08-18T12:26:39.020Z,7.00
2022-08-18T12:27:49.545Z,6.97
2022-08-18T12:28:51.720Z,7.07
2022-08-18T12:29:57.656Z,6.72
2022-08-18T12:31:00.006Z,6.57
2022-08-18T12:32:02.220Z,6.97
2022-08-18T12:33:12.549Z,6.80
2022-08-18T12:34:16.192Z,7.20
2022-08-18T12:35:22.256Z,7.78
2022-08-18T12:36:25.178Z,6.72
2022-08-18T12:37:58.185Z,7.18
2022-08-18T12:38:56.280Z,6.85
2022-08-18T12:40:02.197Z,6.80
2022-08-18T12:41:05.786Z,7.00
2022-08-18T12:42:10.621Z,7.18
2022-08-18T12:43:13.277Z,7.18
2022-08-18T12:44:15.508Z,7.40
2022-08-18T12:45:21.043Z,6.93
2022-08-18T12:46:25.545Z,7.00
2022-08-18T12:47:31.203Z,7.60
2022-08-18T12:48:33.916Z,7.55
2022-08-18T12:49:36.553Z,7.32
2022-08-18T12:50:54.599Z,6.78
2022-08-18T12:51:58.892Z,7.18
2022-08-18T12:53:05.878Z,7.03
2022-08-18T12:54:10.459Z,7.10
2022-08-18T12:55:21.354Z,6.80
2022-08-18T12:56:30.703Z,7.35
2022-08-18T12:57:52.273Z,6.97
2022-08-18T12:58:55.589Z,7.38
2022-08-18T13:00:09.247Z,7.30
2022-08-18T13:01:19.191Z,7.25
2022-08-18T13:02:22.295Z,7.50
2022-08-18T13:03:24.526Z,7.35
2022-08-18T13:04:29.826Z,6.85
2022-08-18T13:05:37.199Z,7.43
2022-08-18T13:06:59.932Z,7.63
2022-08-18T13:08:05.510Z,7.28
2022-08-18T13:09:16.189Z,7.13
2022-08-18T13:10:21.766Z,7.15
2022-08-18T13:11:43.091Z,7.50
2022-08-18T13:12:45.281Z,7.53
2022-08-18T13:13:52.691Z,7.50
2022-08-18T13:14:58.183Z,7.35
2022-08-18T13:16:01.249Z,7.22
2022-08-18T13:17:09.167Z,7.60
2022-08-18T13:18:14.624Z,7.30
2022-08-18T13:19:17.041Z,7.60
2022-08-18T13:20:19.281Z,7.05
2022-08-18T13:21:23.151Z,6.95
2022-08-18T13:22:32.649Z,7.13
2022-08-18T13:23:36.742Z,7.15
2022-08-18T13:24:39.540Z,6.70
2022-08-18T13:25:44.656Z,7.40
2022-08-18T13:26:50.172Z,7.50
2022-08-18T13:29:18.127Z,7.15
2022-08-18T13:30:29.705Z,7.22
2022-08-18T13:31:34.837Z,7.18
2022-08-18T13:32:58.239Z,7.60
2022-08-18T13:34:03.805Z,7.28
2022-08-18T13:35:09.041Z,7.70
2022-08-18T13:36:15.994Z,7.45
2022-08-18T13:37:18.839Z,7.82
2022-08-18T13:38:27.779Z,7.97
2022-08-18T13:39:33.927Z,7.25
2022-08-18T13:40:38.126Z,7.85
2022-08-18T13:41:53.707Z,7.70
2022-08-18T13:42:57.108Z,7.68
2022-08-18T13:44:01.647Z,8.43
2022-08-18T13:45:22.762Z,8.00
2022-08-18T13:46:30.898Z,7.60
2022-08-18T13:47:38.297Z,7.53
2022-08-18T13:48:44.200Z,7.63
2022-08-18T13:49:58.130Z,8.07
2022-08-18T13:51:03.817Z,7.32
2022-08-18T13:52:12.129Z,7.75
2022-08-18T13:53:31.588Z,7.97
2022-08-18T13:54:35.527Z,8.27
2022-08-18T13:55:37.852Z,7.45
2022-08-18T13:56:40.054Z,7.88
2022-08-18T13:57:49.646Z,8.00
2022-08-18T13:58:53.313Z,8.38
2022-08-18T13:59:59.166Z,8.02
2022-08-18T14:01:29.838Z,7.72
2022-08-18T14:02:32.954Z,7.60
2022-08-18T14:03:47.027Z,7.47
2022-08-18T14:04:51.863Z,8.10
2022-08-18T14:06:01.781Z,8.07
2022-08-18T14:07:18.690Z,8.00
2022-08-18T14:08:21.251Z,8.10
2022-08-18T14:09:27.722Z,8.15
2022-08-18T14:10:38.639Z,8.35
2022-08-18T14:11:44.410Z,8.27
2022-08-18T14:13:00.475Z,7.80
2022-08-18T14:14:20.856Z,8.05
2022-08-18T14:15:23.957Z,7.97
2022-08-18T14:16:29.452Z,8.88
2022-08-18T14:17:33.842Z,9.68
2022-08-18T14:18:40.092Z,8.77
2022-08-18T14:20:10.609Z,9.23
2022-08-18T14:21:36.403Z,9.27
2022-08-18T14:23:00.691Z,8.18
2022-08-18T14:24:22.621Z,8.23
2022-08-18T14:25:46.260Z,8.93
2022-08-18T14:26:49.942Z,8.95
2022-08-18T14:27:56.474Z,8.57
2022-08-18T14:28:59.675Z,9.07
2022-08-18T14:30:06.851Z,9.18
2022-08-18T14:31:11.884Z,8.90
2022-08-18T14:32:21.965Z,9.57
2022-08-18T14:33:51.315Z,9.05
2022-08-18T14:34:59.956Z,8.07
2022-08-18T14:36:09.739Z,8.93
2022-08-18T14:37:12.243Z,8.82
2022-08-18T14:38:19.886Z,8.73
2022-08-18T14:39:22.103Z,8.85
2022-08-18T14:40:26.224Z,8.85
2022-08-18T14:41:29.918Z,8.68
2022-08-18T14:42:41.745Z,9.63
2022-08-18T14:44:12.902Z,9.63
2022-08-18T14:45:31.428Z,9.75
2022-08-18T14:46:37.895Z,8.48
2022-08-18T14:47:43.419Z,8.85
2022-08-18T14:48:45.587Z,8.98
2022-08-18T14:49:49.945Z,8.48
2022-08-18T14:50:55.596Z,8.65
2022-08-18T14:52:01.394Z,9.20
2022-08-18T14:53:03.947Z,8.45
2022-08-18T14:54:06.948Z,8.80
2022-08-18T14:55:11.859Z,8.63
2022-08-18T14:56:16.627Z,8.35
2022-08-18T14:58:41.609Z,8.52
2022-08-18T14:59:44.656Z,9.73
2022-08-18T15:00:53.743Z,9.13
2022-08-18T15:01:59.080Z,8.63
2022-08-18T15:03:01.401Z,8.60
2022-08-18T15:04:19.407Z,8.93
2022-08-18T15:05:24.529Z,8.85
2022-08-18T15:06:27.496Z,9.18
2022-08-18T15:07:32.974Z,8.98
2022-08-18T15:08:37.427Z,9.20
2022-08-18T15:09:39.892Z,8.73
2022-08-18T15:10:43.133Z,8.63
2022-08-18T15:11:45.414Z,8.27
2022-08-18T15:12:47.738Z,8.60
2022-08-18T15:13:51.719Z,8.68
2022-08-18T15:14:59.590Z,8.93
2022-08-18T15:16:05.042Z,8.88
2022-08-18T15:17:11.885Z,8.93
2022-08-18T15:18:15.607Z,8.35
2022-08-18T15:19:59.150Z,8.75
2022-08-18T15:21:10.322Z,8.77
2022-08-18T15:22:40.532Z,8.80
2022-08-18T15:24:01.323Z,8.80
2022-08-18T15:25:26.902Z,8.32
2022-08-18T15:26:31.109Z,8.25
2022-08-18T15:27:42.395Z,8.30
2022-08-18T15:28:45.334Z,8.80
2022-08-18T15:29:50.938Z,8.73
2022-08-18T15:32:17.612Z,8.88
2022-08-18T15:33:23.754Z,8.60
2022-08-18T15:34:46.834Z,8.80
2022-08-18T15:35:53.670Z,8.60
2022-08-18T15:36:57.186Z,8.18
2022-08-18T15:38:14.429Z,8.43
2022-08-18T15:39:20.806Z,8.60
2022-08-18T15:40:30.921Z,8.40
2022-08-18T15:41:45.812Z,7.97
2022-08-18T15:42:57.594Z,8.02
2022-08-18T15:44:06.326Z,8.80
2022-08-18T15:45:15.953Z,8.80
2022-08-18T15:46:18.500Z,8.80
2022-08-18T15:47:22.108Z,8.63
2022-08-18T15:48:29.010Z,9.02
2022-08-18T15:49:33.879Z,9.25
2022-08-18T15:50:36.152Z,9.18
2022-08-18T15:51:45.219Z,9.57
2022-08-18T15:54:14.528Z,8.40
2022-08-18T15:55:18.605Z,8.57
2022-08-18T15:56:23.043Z,9.02
2022-08-18T15:57:38.742Z,9.05
2022-08-18T15:58:42.255Z,8.90
2022-08-18T15:59:44.979Z,8.88
2022-08-18T16:00:54.738Z,8.90
2022-08-18T16:01:56.979Z,9.48
2022-08-18T16:03:02.104Z,9.02
2022-08-18T16:04:07.049Z,9.23
2022-08-18T16:05:15.585Z,9.23
2022-08-18T16:06:23.047Z,8.82
2022-08-18T16:07:41.340Z,9.23
2022-08-18T16:08:47.475Z,8.75
2022-08-18T16:09:50.250Z,8.80